Time;durP1;ratioP1;P1;durP2;ratioP2;P2;SDS_P1;SDS_P2;PMS_P1;PMS_P2;Temp;Humidity;BMP_temperature;BMP_pressure;BME280_temperature;BME280_humidity;BME280_pressure;Samples;Min_cycle;Max_cycle;Signal;HPM_P1;HPM_P2
2021/12/04 00:00:58;;;;;;;12.63;5.47;;;;;;;4.70;100.00;99772.69;5025215;28;20059;-76
2021/12/04 00:03:25;;;;;;;6.45;3.22;;;;;;;4.63;100.00;99765.19;5026874;28;20053;-75
2021/12/04 00:05:55;;;;;;;1.98;1.63;;;;;;;4.72;100.00;99767.59;5023553;28;20114;-77
2021/12/04 00:08:24;;;;;;;1.35;1.25;;;;;;;4.69;100.00;99771.13;5022253;28;20056;-74
2021/12/04 00:10:52;;;;;;;5.00;2.75;;;;;;;4.71;100.00;99763.31;5028066;28;20541;-76
2021/12/04 00:13:19;;;;;;;11.27;5.38;;;;;;;4.76;100.00;99766.47;5022225;28;20521;-74
2021/12/04 00:15:45;;;;;;;10.80;5.30;;;;;;;4.79;100.00;99762.19;5025824;28;20053;-74
2021/12/04 00:18:12;;;;;;;9.32;4.53;;;;;;;4.79;100.00;99760.22;5025744;28;20645;-76
2021/12/04 00:20:41;;;;;;;3.40;1.75;;;;;;;4.74;100.00;99746.91;5013532;28;20068;-76
2021/12/04 00:23:08;;;;;;;8.63;4.47;;;;;;;4.75;100.00;99740.25;5027068;28;20098;-74
2021/12/04 00:25:34;;;;;;;2.33;1.67;;;;;;;4.78;100.00;99746.91;5028293;28;20063;-76
2021/12/04 00:28:01;;;;;;;6.80;3.08;;;;;;;4.79;100.00;99741.06;5034188;28;20057;-76
2021/12/04 00:30:28;;;;;;;2.72;1.83;;;;;;;4.78;100.00;99736.75;5028173;28;20049;-75
2021/12/04 00:33:01;;;;;;;5.88;2.58;;;;;;;4.72;100.00;99738.25;5019308;28;20060;-75
2021/12/04 00:49:11;;;;;;;1.55;1.10;;;;;;;4.77;100.00;99721.47;5014101;28;20055;-74
2021/12/04 00:51:42;;;;;;;8.98;4.03;;;;;;;4.80;100.00;99709.72;5032092;28;20474;-76
2021/12/04 00:54:10;;;;;;;5.40;2.85;;;;;;;4.81;100.00;99708.56;5030110;28;20073;-75
2021/12/04 00:56:39;;;;;;;8.90;3.42;;;;;;;4.78;100.00;99703.06;5031011;28;20552;-75
2021/12/04 00:59:07;;;;;;;6.10;2.97;;;;;;;4.79;100.00;99710.91;5026402;28;20120;-76
2021/12/04 01:01:33;;;;;;;13.25;5.55;;;;;;;4.84;100.00;99707.81;5025369;28;20417;-74
2021/12/04 01:04:00;;;;;;;4.60;2.42;;;;;;;4.79;100.00;99705.44;5034735;28;20425;-76
2021/12/04 01:06:27;;;;;;;10.05;4.65;;;;;;;4.78;100.00;99701.13;5030911;28;20045;-76
2021/12/04 01:08:53;;;;;;;9.27;4.72;;;;;;;4.73;100.00;99701.47;5016866;28;20132;-75
2021/12/04 01:11:21;;;;;;;6.18;3.38;;;;;;;4.71;100.00;99700.28;5028755;28;20065;-77
2021/12/04 01:13:47;;;;;;;5.22;2.15;;;;;;;4.69;100.00;99689.69;5028070;28;20107;-76
2021/12/04 01:16:14;;;;;;;5.15;2.58;;;;;;;4.63;100.00;99691.22;5026096;28;20132;-78
2021/12/04 01:18:43;;;;;;;4.25;2.45;;;;;;;4.61;100.00;99692.78;5029559;28;20050;-75
2021/12/04 01:21:10;;;;;;;13.93;5.97;;;;;;;4.69;100.00;99686.97;5029234;28;20132;-76
2021/12/04 01:23:38;;;;;;;7.75;4.05;;;;;;;4.67;100.00;99688.53;5024953;28;20144;-74
2021/12/04 01:26:04;;;;;;;8.52;4.15;;;;;;;4.60;100.00;99683.00;5027708;28;20045;-75
2021/12/04 01:28:31;;;;;;;9.02;4.45;;;;;;;4.62;100.00;99673.22;5030771;28;20199;-76
2021/12/04 01:30:58;;;;;;;8.95;4.18;;;;;;;4.62;100.00;99672.44;5032737;28;20057;-75
2021/12/04 01:33:25;;;;;;;7.72;3.38;;;;;;;4.59;100.00;99679.47;5029695;28;20057;-76
2021/12/04 01:35:51;;;;;;;6.00;3.25;;;;;;;4.57;100.00;99678.28;5030698;28;20050;-75
2021/12/04 01:38:18;;;;;;;13.95;4.70;;;;;;;4.60;100.00;99678.31;5037009;28;20054;-74
2021/12/04 01:40:45;;;;;;;5.63;2.40;;;;;;;4.52;100.00;99671.19;5030999;28;20883;-76
2021/12/04 01:43:12;;;;;;;11.85;5.30;;;;;;;4.59;100.00;99679.47;5021199;28;20079;-76
2021/12/04 01:45:38;;;;;;;11.50;5.25;;;;;;;4.57;100.00;99673.59;5029461;28;20522;-75
2021/12/04 01:48:06;;;;;;;7.72;3.88;;;;;;;4.53;100.00;99663.78;5020032;28;20163;-75
2021/12/04 01:50:34;;;;;;;12.70;6.05;;;;;;;4.59;100.00;99668.50;5031566;28;20068;-75
2021/12/04 01:53:01;;;;;;;13.35;6.25;;;;;;;4.56;100.00;99672.00;5036325;28;20063;-74
2021/12/04 01:55:33;;;;;;;13.98;5.85;;;;;;;4.56;100.00;99671.25;5040039;28;20128;-76
2021/12/04 01:58:01;;;;;;;14.05;6.10;;;;;;;4.58;100.00;99668.88;5027566;28;20117;-76
2021/12/04 02:00:34;;;;;;;13.77;5.93;;;;;;;4.62;100.00;99675.16;5028553;28;20049;-76
2021/12/04 02:03:03;;;;;;;10.98;2.15;;;;;;;4.59;100.00;99673.22;5042235;28;20061;-76
2021/12/04 02:05:31;;;;;;;10.38;5.72;;;;;;;4.61;100.00;99666.19;5027835;28;20053;-76
2021/12/04 02:07:57;;;;;;;17.80;5.95;;;;;;;4.63;100.00;99665.81;5026942;28;20753;-78
2021/12/04 02:10:24;;;;;;;14.45;6.90;;;;;;;4.66;100.00;99662.31;5029545;28;20120;-74
2021/12/04 02:12:51;;;;;;;16.00;7.10;;;;;;;4.66;100.00;99654.09;5031414;28;20049;-77
2021/12/04 02:15:18;;;;;;;16.73;6.47;;;;;;;4.69;100.00;99654.09;5027827;28;20073;-76
2021/12/04 02:17:49;;;;;;;15.80;6.57;;;;;;;4.67;100.00;99656.44;5024727;28;20085;-74
2021/12/04 02:20:22;;;;;;;14.88;6.70;;;;;;;4.68;100.00;99652.53;5027325;28;20057;-76
2021/12/04 02:22:50;;;;;;;15.55;6.57;;;;;;;4.65;100.00;99641.53;5024213;28;20526;-76
2021/12/04 02:25:17;;;;;;;15.68;7.22;;;;;;;4.73;100.00;99654.13;5028535;28;20866;-76
2021/12/04 02:27:45;;;;;;;14.98;7.20;;;;;;;4.76;100.00;99645.91;5023443;28;20588;-75
2021/12/04 02:30:17;;;;;;;14.75;6.88;;;;;;;4.76;100.00;99636.91;5028482;28;20059;-75
2021/12/04 02:32:44;;;;;;;17.45;7.30;;;;;;;4.76;100.00;99640.41;5027249;28;20053;-75
2021/12/04 02:35:12;;;;;;;15.05;6.85;;;;;;;4.77;100.00;99642.00;5037423;28;20175;-74
2021/12/04 02:37:40;;;;;;;16.65;7.32;;;;;;;4.76;100.00;99636.91;5037283;28;20049;-75
2021/12/04 02:40:09;;;;;;;14.90;6.78;;;;;;;4.77;100.00;99631.06;5024172;28;20100;-76
2021/12/04 02:42:36;;;;;;;13.63;6.38;;;;;;;4.80;100.00;99630.25;5033891;28;20057;-76
2021/12/04 02:45:07;;;;;;;15.73;6.68;;;;;;;4.78;100.00;99627.13;5021196;28;20498;-76
2021/12/04 02:47:34;;;;;;;16.80;7.25;;;;;;;4.81;100.00;99620.09;5032883;28;20053;-75
2021/12/04 02:50:05;;;;;;;14.60;6.45;;;;;;;4.83;100.00;99610.31;5036339;28;20052;-74
2021/12/04 02:52:31;;;;;;;15.02;7.03;;;;;;;4.82;100.00;99603.25;5035244;28;20053;-74
2021/12/04 02:54:58;;;;;;;15.02;6.05;;;;;;;4.83;100.00;99598.59;5026197;28;20088;-74
2021/12/04 02:57:27;;;;;;;16.25;6.65;;;;;;;4.81;100.00;99585.25;5010363;28;20540;-76
2021/12/04 02:59:54;;;;;;;15.43;6.25;;;;;;;4.85;100.00;99591.53;5026462;28;20064;-74
2021/12/04 03:02:23;;;;;;;16.65;7.10;;;;;;;4.87;100.00;99586.44;5030089;28;20050;-74
2021/12/04 03:04:59;;;;;;;13.63;6.70;;;;;;;4.90;100.00;99582.94;5027981;28;20076;-75
2021/12/04 03:07:26;;;;;;;16.75;7.68;;;;;;;4.92;100.00;99568.84;5028495;28;20671;-75
2021/12/04 03:09:53;;;;;;;13.32;5.10;;;;;;;4.90;100.00;99555.50;5029027;28;20049;-76
2021/12/04 03:12:23;;;;;;;13.63;6.05;;;;;;;4.93;100.00;99554.75;5029238;28;20084;-74
2021/12/04 03:14:53;;;;;;;14.25;6.65;;;;;;;4.92;100.00;99549.66;5028108;28;20120;-75
2021/12/04 03:17:22;;;;;;;16.40;7.00;;;;;;;4.93;100.00;99537.53;5037973;28;20067;-73
2021/12/04 03:19:51;;;;;;;16.15;6.45;;;;;;;4.97;100.00;99544.56;5039070;28;20068;-76
2021/12/04 03:22:19;;;;;;;14.43;6.75;;;;;;;4.95;100.00;99526.94;5048957;28;20130;-74
2021/12/04 03:24:46;;;;;;;15.93;7.03;;;;;;;4.99;100.00;99522.25;5049802;28;20106;-74
2021/12/04 03:27:15;;;;;;;15.60;6.35;;;;;;;5.00;100.00;99518.38;5047648;28;20049;-75
2021/12/04 03:29:47;;;;;;;15.75;7.03;;;;;;;4.99;100.00;99514.81;5028796;28;20148;-74
2021/12/04 03:40:37;;;;;;;15.15;7.00;;;;;;;5.06;100.00;99519.53;5043324;28;20048;-75
2021/12/04 03:43:07;;;;;;;13.65;6.30;;;;;;;5.11;100.00;99522.69;5026174;28;20136;-75
2021/12/04 03:45:36;;;;;;;7.53;3.70;;;;;;;5.09;100.00;99521.50;5029590;28;20128;-75
2021/12/04 03:51:09;;;;;;;8.68;3.92;;;;;;;5.09;100.00;99513.28;4998248;28;20085;-75
2021/12/04 03:53:36;;;;;;;12.85;5.57;;;;;;;5.15;100.00;99512.50;5006670;28;20053;-74
2021/12/04 03:56:04;;;;;;;10.18;4.20;;;;;;;5.10;100.00;99503.91;5006684;28;20081;-76
2021/12/04 03:58:31;;;;;;;16.83;7.63;;;;;;;5.18;100.00;99505.47;5011499;28;20053;-75
2021/12/04 04:00:58;;;;;;;15.52;6.13;;;;;;;5.19;100.00;99512.50;5006842;28;20136;-76
2021/12/04 04:03:27;;;;;;;15.25;6.55;;;;;;;5.20;100.00;99503.88;4995181;28;20057;-75
2021/12/04 04:05:54;;;;;;;13.60;6.40;;;;;;;5.22;100.00;99504.28;5016171;28;20058;-75
2021/12/04 04:08:21;;;;;;;15.98;6.95;;;;;;;5.19;100.00;99491.34;5010472;28;20525;-75
2021/12/04 04:10:50;;;;;;;15.82;6.65;;;;;;;5.21;100.00;99491.75;5006193;28;20050;-75
2021/12/04 04:13:16;;;;;;;14.30;6.55;;;;;;;5.23;100.00;99505.84;5005948;28;20085;-75
2021/12/04 04:15:43;;;;;;;15.77;6.55;;;;;;;5.22;100.00;99495.28;5006495;28;20059;-76
2021/12/04 04:18:10;;;;;;;15.20;6.57;;;;;;;5.26;100.00;99505.06;5005237;28;20588;-75
2021/12/04 04:20:36;;;;;;;14.45;6.38;;;;;;;5.21;100.00;99497.25;5006707;28;20161;-74
2021/12/04 04:23:03;;;;;;;15.75;7.10;;;;;;;5.25;100.00;99489.81;5023405;28;20053;-75
2021/12/04 04:25:30;;;;;;;15.27;6.82;;;;;;;5.27;100.00;99490.19;5039142;28;20085;-75
2021/12/04 04:27:57;;;;;;;12.70;6.18;;;;;;;5.26;100.00;99491.38;5028419;28;20072;-76
2021/12/04 04:30:24;;;;;;;15.35;5.90;;;;;;;5.28;100.00;99488.22;5027441;28;20080;-78
2021/12/04 04:32:51;;;;;;;16.77;6.22;;;;;;;5.30;100.00;99485.91;5028592;28;20061;-75
2021/12/04 04:35:21;;;;;;;11.98;5.18;;;;;;;5.28;100.00;99483.53;5028556;28;20410;-76
2021/12/04 04:57:28;;;;;;;19.42;7.68;;;;;;;5.34;100.00;99486.69;5042817;28;20564;-75
2021/12/04 05:00:26;;;;;;;14.60;5.68;;;;;;;5.37;100.00;99461.22;5043102;28;20140;-76
2021/12/04 05:11:19;;;;;;;15.68;5.93;;;;;;;5.43;100.00;99457.66;5049708;28;20331;-74
2021/12/04 05:13:46;;;;;;;12.05;5.88;;;;;;;5.44;100.00;99456.47;5027782;28;20068;-75
2021/12/04 05:16:14;;;;;;;12.93;5.53;;;;;;;5.43;100.00;99456.88;5031395;28;20075;-77
2021/12/04 05:18:58;;;;;;;14.20;4.95;;;;;;;5.44;100.00;99459.22;5044673;28;20464;-74
2021/12/04 05:21:25;;;;;;;13.63;5.97;;;;;;;5.39;100.00;99456.09;5052292;28;20080;-74
2021/12/04 05:23:55;;;;;;;14.93;6.40;;;;;;;5.47;100.00;99463.94;5038581;28;20173;-75
2021/12/04 05:26:25;;;;;;;13.35;5.55;;;;;;;5.46;100.00;99460.81;5040057;28;20148;-75
2021/12/04 05:28:54;;;;;;;13.07;5.75;;;;;;;5.45;100.00;99451.78;5033926;28;20111;-74
2021/12/04 05:31:20;;;;;;;13.90;6.47;;;;;;;5.48;100.00;99459.25;5032244;28;20052;-77
2021/12/04 05:33:48;;;;;;;15.98;6.45;;;;;;;5.46;100.00;99453.34;5032072;28;20053;-74
2021/12/04 05:36:16;;;;;;;17.90;6.85;;;;;;;5.47;100.00;99452.19;5032328;28;20390;-74
2021/12/04 05:38:42;;;;;;;13.82;5.95;;;;;;;5.48;100.00;99456.50;5043221;28;20135;-76
2021/12/04 05:41:09;;;;;;;14.40;5.72;;;;;;;5.46;100.00;99438.88;5041480;28;20057;-75
2021/12/04 05:43:36;;;;;;;16.08;6.60;;;;;;;5.47;100.00;99444.72;5042260;28;20476;-75
2021/12/04 05:46:12;;;;;;;12.82;5.93;;;;;;;5.50;100.00;99443.16;5031492;28;20053;-75
2021/12/04 05:56:59;;;;;;;11.90;5.43;;;;;;;5.51;100.00;99443.94;5035146;28;20821;-75
2021/12/04 05:59:27;;;;;;;11.85;5.07;;;;;;;5.47;100.00;99436.50;5030512;28;20049;-76
2021/12/04 06:01:53;;;;;;;11.85;4.00;;;;;;;5.44;100.00;99433.78;5035191;28;20049;-75
2021/12/04 06:04:20;;;;;;;14.23;6.03;;;;;;;5.50;100.00;99443.16;5031796;28;20049;-74
2021/12/04 06:06:47;;;;;;;11.45;4.93;;;;;;;5.43;100.00;99429.44;5030112;28;20140;-74
2021/12/04 06:09:14;;;;;;;16.48;6.03;;;;;;;5.50;100.00;99434.91;5044454;28;20140;-72
2021/12/04 06:11:40;;;;;;;9.38;4.47;;;;;;;5.48;100.00;99431.81;5035306;28;20055;-74
2021/12/04 06:14:07;;;;;;;12.98;4.80;;;;;;;5.48;100.00;99443.53;5031348;28;20103;-75
2021/12/04 06:16:34;;;;;;;12.18;5.18;;;;;;;5.49;100.00;99433.38;5032137;28;20137;-75
2021/12/04 06:19:14;;;;;;;14.70;6.03;;;;;;;5.51;100.00;99438.47;5046215;28;20056;-75
2021/12/04 06:24:25;;;;;;;17.25;6.18;;;;;;;5.49;100.00;99427.88;5036128;28;20076;-74
2021/12/04 06:26:52;;;;;;;12.82;5.63;;;;;;;5.52;100.00;99429.03;5035721;28;20132;-76
2021/12/04 06:29:18;;;;;;;12.98;5.70;;;;;;;5.51;100.00;99438.47;5036178;28;20088;-75
2021/12/04 06:31:45;;;;;;;15.45;6.40;;;;;;;5.47;100.00;99427.50;5033814;28;20164;-76
2021/12/04 06:34:11;;;;;;;14.38;6.30;;;;;;;5.46;100.00;99423.19;5037014;28;20063;-74
2021/12/04 06:36:38;;;;;;;10.57;4.45;;;;;;;5.47;100.00;99430.25;5044359;28;20052;-75
2021/12/04 06:39:05;;;;;;;15.15;6.00;;;;;;;5.52;100.00;99420.81;5035945;28;20508;-75
2021/12/04 06:41:32;;;;;;;15.55;6.28;;;;;;;5.51;100.00;99413.75;5043803;28;20140;-75
2021/12/04 06:43:59;;;;;;;17.88;7.68;;;;;;;5.52;100.00;99424.34;5040579;28;20080;-75
2021/12/04 06:46:26;;;;;;;19.92;7.60;;;;;;;5.54;100.00;99421.22;5043106;28;20521;-75
2021/12/04 06:51:31;;;;;;;18.50;7.10;;;;;;;5.55;100.00;99422.78;5030186;28;20057;-74
2021/12/04 06:54:04;;;;;;;17.52;6.07;;;;;;;5.54;100.00;99418.47;5030562;28;20098;-77
2021/12/04 06:56:36;;;;;;;14.02;6.03;;;;;;;5.57;100.00;99418.44;5046919;28;20053;-75
2021/12/04 06:59:10;;;;;;;17.63;6.93;;;;;;;5.54;100.00;99408.28;5044761;28;20092;-76
2021/12/04 07:01:38;;;;;;;17.70;6.43;;;;;;;5.55;100.00;99414.53;5028335;28;20160;-75
2021/12/04 07:04:06;;;;;;;20.73;7.32;;;;;;;5.57;100.00;99415.69;5025405;28;20053;-75
2021/12/04 07:06:33;;;;;;;21.45;7.18;;;;;;;5.59;100.00;99418.06;5030022;28;20148;-75
2021/12/04 07:09:00;;;;;;;18.30;7.40;;;;;;;5.57;100.00;99421.19;5035410;28;20056;-75
2021/12/04 07:11:27;;;;;;;17.00;7.70;;;;;;;5.58;100.00;99424.72;5043141;28;20176;-75
2021/12/04 07:13:55;;;;;;;9.93;3.67;;;;;;;5.54;100.00;99426.69;5028953;28;20057;-78
2021/12/04 07:16:24;;;;;;;15.82;6.22;;;;;;;5.59;100.00;99429.03;5030204;28;20128;-78
2021/12/04 07:18:51;;;;;;;16.00;6.57;;;;;;;5.61;100.00;99426.69;5041746;28;20073;-80
2021/12/04 07:21:18;;;;;;;15.85;5.50;;;;;;;5.53;100.00;99414.16;5027474;28;20114;-78
2021/12/04 07:23:45;;;;;;;14.52;6.00;;;;;;;5.58;100.00;99419.25;5041854;28;20087;-78
2021/12/04 07:26:12;;;;;;;14.13;5.95;;;;;;;5.61;100.00;99418.44;5035495;28;20132;-78
2021/12/04 07:28:39;;;;;;;12.88;5.55;;;;;;;5.61;100.00;99422.00;5029519;28;20115;-78
2021/12/04 07:31:06;;;;;;;12.13;6.00;;;;;;;5.55;100.00;99409.84;5030723;28;20052;-78
2021/12/04 07:33:33;;;;;;;14.73;5.93;;;;;;;5.59;100.00;99405.13;5043830;28;20186;-79
2021/12/04 07:36:00;;;;;;;14.13;5.85;;;;;;;5.61;100.00;99412.97;5033406;28;20050;-77
2021/12/04 07:38:28;;;;;;;14.57;6.32;;;;;;;5.64;100.00;99423.16;5027406;28;20464;-77
2021/12/04 07:40:57;;;;;;;12.90;5.90;;;;;;;5.66;100.00;99420.78;5036605;28;20132;-78
2021/12/04 07:43:23;;;;;;;15.43;6.53;;;;;;;5.65;100.00;99409.03;5034820;28;20057;-79
2021/12/04 07:45:50;;;;;;;13.25;5.55;;;;;;;5.66;100.00;99412.56;5033418;28;20132;-78
2021/12/04 07:48:17;;;;;;;13.57;5.85;;;;;;;5.69;100.00;99418.03;5034615;28;20159;-79
2021/12/04 07:50:44;;;;;;;17.80;5.97;;;;;;;5.67;100.00;99420.38;5039563;28;20505;-76
2021/12/04 07:53:17;;;;;;;13.27;5.80;;;;;;;5.69;100.00;99420.78;5039072;28;20053;-78
2021/12/04 07:55:44;;;;;;;13.93;6.22;;;;;;;5.71;100.00;99412.97;5043814;28;20052;-78
2021/12/04 07:58:10;;;;;;;15.18;6.18;;;;;;;5.69;100.00;99409.81;5032152;28;20075;-80
2021/12/04 08:00:37;;;;;;;13.82;6.13;;;;;;;5.74;100.00;99416.88;5031181;28;20076;-80
2021/12/04 08:03:04;;;;;;;17.13;6.28;;;;;;;5.73;100.00;99415.31;5029444;28;20050;-78
2021/12/04 08:05:31;;;;;;;11.15;4.78;;;;;;;5.67;100.00;99411.38;5031471;28;20049;-75
2021/12/04 08:07:57;;;;;;;9.57;4.35;;;;;;;5.70;100.00;99414.13;5031277;28;20056;-74
2021/12/04 08:10:24;;;;;;;11.68;5.25;;;;;;;5.75;100.00;99426.66;5039238;28;20042;-75
2021/12/04 08:12:51;;;;;;;3.50;1.73;;;;;;;5.71;100.00;99425.88;5027601;28;20133;-76
2021/12/04 08:15:18;;;;;;;17.55;6.32;;;;;;;5.76;100.00;99419.97;5028716;28;20076;-74
2021/12/04 08:17:45;;;;;;;11.13;4.53;;;;;;;5.74;100.00;99422.34;5029866;28;20084;-74
2021/12/04 08:20:14;;;;;;;15.57;5.50;;;;;;;5.78;100.00;99423.13;5030547;28;20087;-74
2021/12/04 08:22:42;;;;;;;3.72;1.95;;;;;;;5.75;100.00;99424.69;5028795;28;20053;-74
2021/12/04 08:25:11;;;;;;;12.98;5.13;;;;;;;5.81;100.00;99427.81;5027779;28;20140;-76
2021/12/04 08:27:38;;;;;;;16.45;5.68;;;;;;;5.78;100.00;99434.09;5046516;28;20898;-75
2021/12/04 08:30:07;;;;;;;13.50;5.70;;;;;;;5.82;100.00;99423.91;5042649;28;20137;-71
2021/12/04 08:32:34;;;;;;;13.85;5.88;;;;;;;5.82;100.00;99412.94;5033137;28;20144;-69
2021/12/04 08:35:02;;;;;;;3.90;2.22;;;;;;;5.84;100.00;99407.84;5044840;28;20228;-71
2021/12/04 08:37:29;;;;;;;17.77;6.63;;;;;;;5.94;100.00;99399.56;5043319;28;20049;-70
2021/12/04 08:39:55;;;;;;;15.00;6.07;;;;;;;5.91;100.00;99396.84;5027305;28;20053;-73
2021/12/04 08:42:24;;;;;;;12.98;5.70;;;;;;;5.89;100.00;99404.69;5027809;28;20076;-77
2021/12/04 08:44:52;;;;;;;9.15;4.13;;;;;;;5.82;100.00;99397.25;5024649;28;20139;-75
2021/12/04 08:47:19;;;;;;;14.48;5.82;;;;;;;5.89;100.00;99401.94;5028893;28;20073;-75
2021/12/04 08:49:46;;;;;;;13.70;5.38;;;;;;;5.84;100.00;99394.88;5028835;28;20429;-75
2021/12/04 08:52:17;;;;;;;15.57;6.65;;;;;;;5.87;100.00;99393.34;5029991;28;20057;-75
2021/12/04 08:54:43;;;;;;;16.80;7.40;;;;;;;5.91;100.00;99397.63;5028575;28;20577;-75
2021/12/04 08:57:11;;;;;;;16.73;5.78;;;;;;;5.90;100.00;99392.53;5031715;28;20049;-75
2021/12/04 08:59:37;;;;;;;14.68;5.20;;;;;;;5.90;100.00;99398.03;5026987;28;20561;-78
2021/12/04 09:02:05;;;;;;;15.18;6.47;;;;;;;5.91;100.00;99405.88;5029590;28;20579;-76
2021/12/04 09:04:35;;;;;;;15.68;5.65;;;;;;;5.93;100.00;99402.69;5021117;28;20062;-74
2021/12/04 09:07:04;;;;;;;17.40;7.55;;;;;;;5.97;100.00;99395.25;5021002;28;20072;-74
2021/12/04 09:09:31;;;;;;;18.95;7.85;;;;;;;5.98;100.00;99399.56;5025698;28;20418;-76
2021/12/04 09:12:18;;;;;;;16.05;7.30;;;;;;;6.00;100.00;99402.69;5023954;28;20053;-77
2021/12/04 09:14:45;;;;;;;17.67;7.45;;;;;;;5.99;100.00;99393.66;5020141;28;20046;-75
2021/12/04 09:17:15;;;;;;;17.50;6.85;;;;;;;6.05;100.00;99394.03;5018812;28;20049;-75
2021/12/04 09:19:43;;;;;;;4.80;2.13;;;;;;;5.95;100.00;99394.88;5021876;28;20196;-76
2021/12/04 09:22:16;;;;;;;7.82;3.53;;;;;;;5.88;100.00;99383.91;5023524;28;20793;-75
2021/12/04 09:25:00;;;;;;;10.70;4.88;;;;;;;5.98;100.00;99388.59;5033156;28;20048;-75
2021/12/04 09:28:01;;;;;;;16.30;6.72;;;;;;;6.01;100.00;99387.78;5046518;28;20146;-78
2021/12/04 10:00:58;;;;;;;;;;;;;;;;;;;;;
2021/12/04 10:19:51;;;;;;;;;;;;;;;;;;;;;
2021/12/04 10:24:59;;;;;;;25.08;8.20;;;;;;;6.42;100.00;99290.66;5018668;28;20115;-75
2021/12/04 10:33:12;;;;;;;18.65;9.18;;;;;;;6.94;100.00;99274.88;5024543;28;20046;-76
2021/12/04 10:35:39;;;;;;;16.63;7.80;;;;;;;7.24;100.00;99266.72;5019808;28;20557;-78
2021/12/04 10:38:11;;;;;;;17.63;8.02;;;;;;;7.48;100.00;99266.47;5020433;28;20046;-76
2021/12/04 10:40:42;;;;;;;18.17;7.38;;;;;;;7.78;100.00;99262.94;5018640;28;20165;-79
2021/12/04 10:43:23;;;;;;;16.55;7.05;;;;;;;7.77;99.81;99264.91;5037397;28;20089;-75
2021/12/04 10:45:55;;;;;;;10.05;4.35;;;;;;;7.65;98.06;99254.44;5023928;28;20526;-76
2021/12/04 10:48:26;;;;;;;15.00;7.13;;;;;;;7.80;99.45;99253.06;5022200;28;20049;-77
2021/12/04 10:53:30;;;;;;;15.15;7.07;;;;;;;7.84;99.25;99250.28;5024515;28;20104;-76
2021/12/04 11:04:48;;;;;;;14.10;6.38;;;;;;;8.16;98.78;99230.53;5028317;28;20593;-77
2021/12/04 11:43:18;;;;;;;10.82;4.85;;;;;;;7.63;98.16;99138.47;5026338;28;20404;-77
2021/12/04 11:48:38;;;;;;;10.98;5.13;;;;;;;7.54;99.14;99110.69;5025955;28;20024;-77
2021/12/04 11:51:14;;;;;;;10.20;5.10;;;;;;;7.55;98.98;99119.72;5020886;28;20080;-75
2021/12/04 11:53:41;;;;;;;14.05;5.63;;;;;;;7.60;98.96;99109.00;5036307;28;20136;-76
2021/12/04 11:56:20;;;;;;;11.63;5.40;;;;;;;7.65;99.84;99116.03;5039055;28;20045;-77
2021/12/04 11:58:49;;;;;;;11.45;5.47;;;;;;;7.68;99.50;99120.72;5036507;28;20135;-76
2021/12/04 12:01:20;;;;;;;11.45;5.38;;;;;;;7.62;98.05;99112.16;5036697;28;20502;-76
2021/12/04 12:03:54;;;;;;;11.65;5.30;;;;;;;7.58;98.56;99122.44;5029143;28;20811;-76
2021/12/04 12:06:44;;;;;;;13.02;5.18;;;;;;;7.53;98.40;99133.88;5037384;28;20136;-79
2021/12/04 12:09:12;;;;;;;11.23;4.35;;;;;;;7.54;98.42;99142.94;5025305;28;20056;-75
2021/12/04 12:11:55;;;;;;;5.43;2.35;;;;;;;7.38;98.09;99131.75;5028680;28;20053;-76
2021/12/04 12:14:36;;;;;;;14.07;5.72;;;;;;;7.43;97.55;99118.31;5029340;28;20063;-75
2021/12/04 12:17:03;;;;;;;10.88;5.25;;;;;;;7.44;98.36;99113.59;5028100;28;20053;-77
2021/12/04 12:19:39;;;;;;;10.65;5.13;;;;;;;7.41;98.25;99106.16;5038104;28;20148;-76
2021/12/04 12:22:16;;;;;;;10.10;5.00;;;;;;;7.44;98.93;99091.56;5036232;28;20557;-79
2021/12/04 12:33:17;;;;;;;13.93;5.43;;;;;;;7.27;97.96;99089.84;5017339;28;20573;-77
2021/12/04 12:36:09;;;;;;;9.48;4.30;;;;;;;7.12;97.84;99083.75;5028866;28;20080;-76
2021/12/04 12:38:35;;;;;;;8.88;4.25;;;;;;;7.17;97.53;99085.28;5026233;28;20055;-76
2021/12/04 12:41:07;;;;;;;10.18;4.03;;;;;;;7.10;97.54;99080.66;5027778;28;20262;-76
2021/12/04 12:43:43;;;;;;;10.38;4.57;;;;;;;7.12;97.95;99069.25;5024047;28;20730;-76
2021/12/04 12:46:11;;;;;;;12.07;4.63;;;;;;;7.04;97.81;99065.81;5027041;28;20472;-77
2021/12/04 12:48:47;;;;;;;8.88;4.18;;;;;;;7.10;98.00;99052.38;5029374;28;20737;-78
2021/12/04 12:51:21;;;;;;;11.65;4.90;;;;;;;7.12;98.54;99042.50;5025252;28;20049;-76
2021/12/04 12:53:48;;;;;;;9.82;4.10;;;;;;;7.10;98.24;99042.16;5022443;28;20136;-77
2021/12/04 12:56:16;;;;;;;12.52;4.75;;;;;;;7.13;98.86;99051.53;5026326;28;20140;-76
2021/12/04 12:58:50;;;;;;;15.20;5.38;;;;;;;7.15;98.67;99038.13;5030008;28;20140;-78
2021/12/04 13:12:47;;;;;;;10.63;5.22;;;;;;;7.26;98.07;99012.03;5041912;28;20067;-77
2021/12/04 13:15:15;;;;;;;12.80;5.65;;;;;;;7.31;98.83;99006.09;5028690;28;20107;-77
2021/12/04 13:17:42;;;;;;;11.90;4.80;;;;;;;7.31;98.81;99003.34;5028510;28;20049;-76
2021/12/04 13:20:10;;;;;;;9.05;4.72;;;;;;;7.33;98.74;99011.19;5031688;28;20144;-77
2021/12/04 13:22:37;;;;;;;10.50;4.05;;;;;;;7.29;97.62;99015.97;5031911;28;20054;-76
2021/12/04 13:25:10;;;;;;;10.90;5.18;;;;;;;7.23;97.52;99012.09;5029049;28;20417;-79
2021/12/04 13:30:15;;;;;;;9.43;4.55;;;;;;;7.25;97.53;99032.50;5035413;28;20120;-76
2021/12/04 13:32:44;;;;;;;6.28;3.67;;;;;;;7.22;97.48;99032.53;5039056;28;20076;-76
2021/12/04 13:35:22;;;;;;;8.52;4.20;;;;;;;7.21;97.16;99020.00;5033122;28;20051;-77
2021/12/04 13:37:54;;;;;;;9.48;3.95;;;;;;;7.21;97.97;99020.00;5035932;28;20056;-77
2021/12/04 13:40:22;;;;;;;9.50;4.55;;;;;;;7.11;97.77;99015.41;5031255;28;20501;-76
2021/12/04 13:42:48;;;;;;;11.23;5.38;;;;;;;7.09;97.77;99021.31;5035048;28;20140;-79
2021/12/04 13:45:17;;;;;;;6.43;3.30;;;;;;;7.06;98.03;99024.16;5031137;28;20132;-75
2021/12/04 13:47:55;;;;;;;10.63;5.30;;;;;;;7.05;97.61;99025.31;5024733;28;20136;-77
2021/12/04 13:53:05;;;;;;;11.00;5.20;;;;;;;7.04;98.46;99040.25;5028204;28;20077;-76
2021/12/04 13:55:34;;;;;;;2.20;1.30;;;;;;;6.91;99.50;99047.50;5031743;28;20492;-76
2021/12/04 13:58:05;;;;;;;10.93;5.30;;;;;;;6.99;100.00;99052.50;5035266;28;20565;-77
2021/12/04 14:00:32;;;;;;;7.05;2.63;;;;;;;6.88;100.00;99046.38;5022178;28;20053;-76
2021/12/04 14:02:59;;;;;;;15.85;6.55;;;;;;;6.90;100.00;99054.19;5034835;28;20122;-76
2021/12/04 14:05:27;;;;;;;15.93;6.03;;;;;;;6.81;100.00;99054.72;5037876;28;20187;-75
2021/12/04 14:08:00;;;;;;;7.65;3.50;;;;;;;6.75;100.00;99048.09;5030610;28;20069;-75
2021/12/04 14:10:37;;;;;;;14.63;7.50;;;;;;;6.75;100.00;99053.59;5030605;28;20080;-75
2021/12/04 14:13:05;;;;;;;12.98;5.68;;;;;;;6.69;100.00;99047.03;5024131;28;20462;-75
2021/12/04 14:15:34;;;;;;;18.95;6.57;;;;;;;6.67;100.00;99037.59;5023367;28;20132;-76
2021/12/04 14:18:05;;;;;;;12.70;6.32;;;;;;;6.65;100.00;99038.00;5029608;28;20045;-75
2021/12/04 14:20:34;;;;;;;14.88;6.25;;;;;;;6.65;100.00;99035.25;5030810;28;20421;-76
2021/12/04 14:23:02;;;;;;;14.75;6.53;;;;;;;6.60;100.00;99015.72;5025832;28;20137;-75
2021/12/04 14:25:29;;;;;;;18.63;6.63;;;;;;;6.67;100.00;99019.16;5033721;28;20057;-76
2021/12/04 14:27:59;;;;;;;17.40;6.38;;;;;;;6.64;100.00;99019.19;5029033;28;20053;-77
2021/12/04 14:30:33;;;;;;;16.83;7.53;;;;;;;6.63;100.00;99023.13;5034380;28;20140;-77
2021/12/04 14:33:02;;;;;;;19.45;8.77;;;;;;;6.58;100.00;99021.63;5031059;28;20399;-76
2021/12/04 14:35:35;;;;;;;18.60;8.10;;;;;;;6.56;100.00;99029.50;5031628;28;20155;-76
2021/12/04 14:38:05;;;;;;;17.38;7.90;;;;;;;6.52;100.00;99034.25;5021911;28;20415;-73
2021/12/04 14:40:36;;;;;;;15.88;6.88;;;;;;;6.48;100.00;99032.75;5025364;28;20133;-74
2021/12/04 14:43:04;;;;;;;18.33;7.53;;;;;;;6.39;100.00;99033.25;5028373;28;20489;-75
2021/12/04 14:45:34;;;;;;;17.92;8.18;;;;;;;6.42;100.00;99039.88;5027763;28;20088;-75
2021/12/04 14:48:04;;;;;;;18.13;8.35;;;;;;;6.42;100.00;99050.84;5030769;28;20042;-76
2021/12/04 14:50:32;;;;;;;20.17;8.80;;;;;;;6.37;100.00;99048.53;5028129;28;20053;-75
2021/12/04 14:53:01;;;;;;;19.13;8.27;;;;;;;6.37;100.00;99059.53;5029300;28;20046;-77
2021/12/04 14:55:32;;;;;;;21.33;8.45;;;;;;;6.34;100.00;99066.63;5021571;28;20054;-77
2021/12/04 14:58:05;;;;;;;18.02;6.00;;;;;;;6.27;100.00;99063.16;5034184;28;20049;-76